Latest Coastal Weather Observations for Melbourne (Olympic Park)

IDV60701

Issued at 1:55 am EDT Thursday 27 November 2014 (issued every 10 minutes, with the page automatically refreshed every 10 minutes)

About coastal observations | Map of coastal stations | Coastal observations for VIC | Marine services | Other Formats
Station Details ID: 086338 Name: MELBOURNE (OLYMPIC PARK) Lat: -37.83 Lon: 144.98 Height: 7.53 m
Data from the previous 72 hours. | See also: Recent months at Melbourne (Olympic Park)
Date/Time
EDT
Temp

°C
Wind Pressure Rain
since 9am
mm
Weather Cloud Vis
km
Sea
Height
m
Swell
Dir
 
Speed
knots
Gust
knots
hPa Trend Height
m
Period
s
Dir
27/01:30am 14.1 SSE 5 9 1024.0 - 0.0 - - - - - - -
27/01:00am 13.9 SSE 5 9 1024.2 - 0.0 - - - - - - -
27/12:30am 14.0 S 5 10 1024.5 - 0.0 - - - - - - -
27/12:00am 14.2 S 5 9 1024.6 - 0.0 - - - - - - -
 
Date/Time
EDT
Temp

°C
Wind Pressure Rain
since 9am
mm
Weather Cloud Vis
km
Sea
Height
m
Swell
Dir
 
Speed
knots
Gust
knots
hPa Trend Height
m
Period
s
Dir
26/11:30pm 14.4 S 6 10 1024.6 - 0.0 - - - - - - -
26/11:00pm 14.5 S 7 14 1024.6 - 0.0 - - - - - - -
26/10:30pm 14.6 S 6 12 1024.5 - 0.0 - - - - - - -
26/10:00pm 14.6 SSE 7 14 1024.3 - 0.0 - - - - - - -
26/09:30pm 14.7 S 7 12 1024.0 - 0.0 - - - - - - -
26/09:00pm 14.8 SSE 7 10 1023.7 - 0.0 - - - - - - -
26/08:30pm 15.0 SSE 7 15 1023.5 - 0.0 - - - - - - -
26/08:00pm 15.2 S 7 14 1023.4 - 0.0 - - - - - - -
26/07:30pm 15.4 S 6 11 1023.1 - 0.0 - - - - - - -
26/07:00pm 15.6 S 6 11 1022.8 - 0.0 - - - - - - -
26/06:30pm 15.6 S 8 14 1022.5 - 0.0 - - - - - - -
26/06:00pm 15.4 S 7 12 1022.3 - 0.0 - - - - - - -
26/05:30pm 14.5 S 8 13 1022.3 - 0.0 - - - - - - -
26/05:00pm 15.7 S 8 14 1022.1 - 0.0 - - - - - - -
26/04:30pm 16.1 S 9 17 1022.0 - 0.0 - - - - - - -
26/04:00pm 16.6 S 8 14 1022.0 - 0.0 - - - - - - -
26/03:30pm 17.0 S 8 13 1021.7 - 0.0 - - - - - - -
26/03:00pm 17.8 SSW 6 11 1021.6 - 0.0 - - - - - - -
26/02:30pm 18.1 SSW 4 8 1021.5 - 0.0 - - - - - - -
26/02:00pm 18.0 S 4 7 1021.6 - 0.0 - - - - - - -
26/01:30pm 17.9 SW 6 9 1021.7 - 0.0 - - - - - - -
26/01:00pm 17.8 S 7 11 1021.8 - 0.0 - - - - - - -
26/12:30pm 17.8 S 6 11 1021.8 - 0.0 - - - - - - -
26/12:00pm 18.0 SW 5 9 1021.8 - 0.0 - - - - - - -
26/11:30am 16.7 S 6 9 1022.0 - 0.0 - - - - - - -
26/11:00am 16.7 SSW 5 9 1021.9 - 0.0 - - - - - - -
26/10:30am 16.2 SSW 6 9 1022.0 - 0.0 - - - - - - -
26/10:00am 15.8 SW 6 13 1022.0 - 0.0 - - - - - - -
26/09:30am 15.0 W 5 9 1022.0 - 0.0 - - - - - - -
26/09:00am 15.0 W 2 6 1021.8 - 0.0 - - - - - - -
26/08:30am 14.1 WSW 3 6 1021.6 - 0.0 - - - - - - -
26/08:00am 13.4 W 4 6 1021.5 - 0.0 - - - - - - -
26/07:30am 12.7 WNW 5 6 1021.4 - 0.0 - - - - - - -
26/07:00am 12.5 WNW 3 6 1021.1 - 0.0 - - - - - - -
26/06:30am 12.3 WNW 4 7 1021.0 - 0.0 - - - - - - -
26/06:00am 12.1 W 3 6 1020.7 - 0.0 - - - - - - -
26/05:30am 12.2 NW 3 6 1020.5 - 0.0 - - - - - - -
26/05:00am 12.2 NW 2 4 1020.2 - 0.0 - - - - - - -
26/04:30am 12.2 WNW 2 5 1020.3 - 0.0 - - - - - - -
26/04:00am 12.4 NW 2 5 1020.3 - 0.0 - - - - - - -
26/03:30am 12.5 CALM 0 3 1020.3 - 0.0 - - - - - - -
26/03:00am 13.0 W 3 5 1020.3 - 0.0 - - - - - - -
26/02:30am 13.1 W 2 6 1020.5 - 0.0 - - - - - - -
26/02:00am 13.2 W 2 6 1020.7 - 0.0 - - - - - - -
26/01:30am 13.5 WSW 3 5 1020.8 - 0.0 - - - - - - -
26/01:00am 14.1 W 4 7 1021.1 - 0.0 - - - - - - -
26/12:30am 14.5 W 4 8 1021.3 - 0.0 - - - - - - -
26/12:00am 14.7 W 5 8 1021.5 - 0.0 - - - - - - -
 
Date/Time
EDT
Temp

°C
Wind Pressure Rain
since 9am
mm
Weather Cloud Vis
km
Sea
Height
m
Swell
Dir
 
Speed
knots
Gust
knots
hPa Trend Height
m
Period
s
Dir
25/11:30pm 14.9 W 5 7 1021.7 - 0.0 - - - - - - -
25/11:00pm 15.4 SW 5 11 1021.8 - 0.0 - - - - - - -
25/10:30pm 15.8 SSW 5 9 1021.7 - 0.0 - - - - - - -
25/10:00pm 16.0 SSW 7 14 1021.5 - 0.0 - - - - - - -
25/09:30pm 15.7 S 5 11 1021.1 - 0.0 - - - - - - -
25/09:00pm 15.6 S 6 11 1020.9 - 0.0 - - - - - - -
25/08:30pm 15.5 SSE 6 12 1020.6 - 0.0 - - - - - - -
25/08:00pm 15.9 SSE 7 12 1020.4 - 0.0 - - - - - - -
25/07:30pm 16.0 S 6 10 1020.0 - 0.0 - - - - - - -
25/07:00pm 16.4 S 8 14 1019.5 - 0.0 - - - - - - -
25/06:30pm 17.3 S 7 11 1019.1 - 0.0 - - - - - - -
25/06:00pm 17.7 S 7 11 1018.7 - 0.0 - - - - - - -
25/05:30pm 18.6 S 7 11 1018.5 - 0.0 - - - - - - -
25/05:00pm 18.6 S 7 12 1018.4 - 0.0 - - - - - - -
25/04:30pm 19.4 S 9 15 1018.4 - 0.0 - - - - - - -
25/04:00pm 20.1 S 8 14 1018.5 - 0.0 - - - - - - -
25/03:30pm 19.4 S 8 11 1018.5 - 0.0 - - - - - - -
25/03:00pm 20.3 WSW 6 14 1018.5 - 0.0 - - - - - - -
25/02:30pm 19.0 S 7 14 1018.4 - 0.0 - - - - - - -
25/02:00pm 19.6 SW 7 14 1018.6 - 0.0 - - - - - - -
25/01:30pm 18.5 S 7 13 1018.6 - 0.0 - - - - - - -
25/01:00pm 18.8 SW 7 14 1018.7 - 0.0 - - - - - - -
25/12:30pm 18.9 SSW 8 13 1018.7 - 0.0 - - - - - - -
25/12:00pm 18.2 WSW 7 14 1018.9 - 0.0 - - - - - - -
25/11:30am 17.7 SSW 5 11 1018.9 - 0.0 - - - - - - -
25/11:00am 17.5 SW 7 11 1019.0 - 0.0 - - - - - - -
25/10:30am 16.9 W 6 13 1019.1 - 0.0 - - - - - - -
25/10:00am 16.8 W 7 11 1019.0 - 0.0 - - - - - - -
25/09:30am 15.7 SW 11 16 1019.0 - 0.0 - - - - - - -
25/09:00am 15.3 W 7 13 1018.5 - 12.6 - - - - - - -
25/08:30am 14.3 NW 7 11 1018.2 - 12.6 - - - - - - -
25/08:00am 13.1 WNW 6 9 1017.6 - 12.6 - - - - - - -
25/07:30am 13.2 WNW 4 7 1017.2 - 12.6 - - - - - - -
25/07:00am 12.1 NW 5 8 1016.6 - 12.6 - - - - - - -
25/06:30am 11.6 WNW 4 6 1016.3 - 12.6 - - - - - - -
25/06:00am 11.5 WNW 5 8 1015.9 - 12.6 - - - - - - -
25/05:30am 11.7 WNW 6 12 1015.6 - 12.6 - - - - - - -
25/05:00am 11.8 W 5 11 1015.2 - 12.6 - - - - - - -
25/04:30am 11.6 WSW 3 5 1015.0 - 12.6 - - - - - - -
25/04:00am 11.9 WNW 6 11 1014.9 - 12.6 - - - - - - -
25/03:30am 12.1 W 4 11 1014.9 - 12.6 - - - - - - -
25/03:00am 12.3 WNW 5 9 1014.9 - 12.6 - - - - - - -
25/02:30am 12.5 WNW 5 8 1014.9 - 12.6 - - - - - - -
25/02:00am 12.3 W 2 5 1014.7 - 12.6 - - - - - - -
25/01:30am 12.6 WNW 5 9 1014.5 - 12.6 - - - - - - -
25/01:00am 12.9 WNW 3 7 1014.5 - 12.6 - - - - - - -
25/12:30am 13.0 W 4 6 1014.5 - 12.6 - - - - - - -
25/12:00am 13.3 W 5 9 1014.3 - 12.6 - - - - - - -
 
Date/Time
EDT
Temp

°C
Wind Pressure Rain
since 9am
mm
Weather Cloud Vis
km
Sea
Height
m
Swell
Dir
 
Speed
knots
Gust
knots
hPa Trend Height
m
Period
s
Dir
24/11:30pm 13.5 W 4 7 1014.0 - 12.6 - - - - - - -
24/11:00pm 13.8 W 5 8 1013.8 - 12.6 - - - - - - -
24/10:30pm 13.8 W 3 8 1013.8 - 12.6 - - - - - - -
24/10:00pm 14.2 W 4 9 1013.5 - 12.6 - - - - - - -
24/09:30pm 14.6 W 4 11 1013.0 - 12.6 - - - - - - -
24/09:00pm 14.7 W 2 7 1012.7 - 12.6 - - - - - - -
24/08:30pm 14.5 SSW 7 15 1012.1 - 12.6 - - - - - - -
24/08:00pm 14.9 W 5 10 1011.6 - 12.6 - - - - - - -
24/07:30pm 14.8 - 3 - 1010.8 - 12.6 - - - - - - -
24/07:00pm 15.5 SSW 9 19 1010.2 - 12.6 - - - - - - -
24/06:30pm 17.1 SSW 6 12 1008.8 - 12.2 - - - - - - -
24/06:00pm 17.8 SSW 5 9 1008.0 - 12.2 - - - - - - -
24/05:30pm 17.3 WSW 3 8 1007.4 - 12.2 - - - - - - -
24/05:00pm 16.8 SW 5 15 1007.0 - 12.2 - - - - - - -
24/04:30pm 16.9 SW 7 13 1006.7 - 12.2 - - - - - - -
24/04:00pm 17.8 SSW 3 5 1006.5 - 11.6 - - - - - - -
24/03:30pm 17.5 WSW 2 4 1006.7 - 10.0 - - - - - - -
24/03:00pm 17.9 SW 5 9 1006.7 - 8.8 Rain - - - - - -
24/02:30pm 18.9 SSW 6 12 1006.1 - 8.4 - - - - - - -
24/02:00pm 19.4 CALM 0 3 1006.0 - 8.2 - - - - - - -
24/01:30pm 18.9 ESE 5 7 1005.5 - 8.2 - - - - - - -
24/01:26pm 18.5 ESE 4 7 1006.0 - 8.2 - - - - - - -
24/01:00pm 18.7 SSE 3 6 1008.0 - 6.6 - - - - - - -
24/12:30pm 17.3 ESE 3 6 1008.1 - 6.4 - - - - - - -
24/12:00pm 17.2 SE 2 4 1009.1 - 4.6 Rain - - - - - -
24/11:30am 17.0 SSE 4 6 1009.2 - 3.8 - - - - - - -
24/11:00am 17.2 NE 2 4 1009.5 - 1.2 - - - - - - -
24/10:30am 16.8 SSE 2 4 1009.3 - 1.2 - - - - - - -
24/10:00am 17.1 CALM 0 3 1009.7 - 0.4 - - - - - - -
24/09:30am 16.9 SSW 1 3 1009.8 - 0.2 - - - - - - -
24/09:00am 16.5 WSW 4 7 1009.6 - 1.2 Rain - - - - - -
24/08:30am 17.7 W 7 11 1009.8 - 0.0 - - - - - - -
24/08:24am 17.4 NNW 4 15 1009.8 - 0.0 - - - - - - -
24/08:00am 16.5 N 5 8 1007.6 - 0.0 - - - - - - -
24/07:30am 16.2 NNE 6 8 1007.2 - 0.0 - - - - - - -
24/07:00am 16.1 N 4 7 1007.6 - 0.0 - - - - - - -
24/06:30am 15.9 W 1 4 1008.5 - 0.0 - - - - - - -
24/06:00am 16.1 SE 1 5 1008.5 - 0.0 - - - - - - -
24/05:30am 15.7 NE 2 5 1008.3 - 0.0 - - - - - - -
24/05:00am 15.0 CALM 0 2 1008.6 - 0.0 - - - - - - -
24/04:30am 15.0 CALM 0 2 1008.4 - 0.0 - - - - - - -
24/04:00am 14.7 CALM 0 0 1008.7 - 0.0 - - - - - - -
24/03:30am 14.7 CALM 0 3 1009.2 - 0.0 - - - - - - -
24/03:00am 14.7 CALM 0 0 1009.6 - 0.0 - - - - - - -
24/02:30am 15.1 CALM 0 0 1010.1 - 0.0 - - - - - - -
24/02:00am 15.5 CALM 0 0 1010.7 - 0.0 - - - - - - -

Other Formats:

Comma delimited format used in spreadsheet applications
http://www.bom.gov.au/fwo/IDV60701/IDV60701.95936.axf

JavaScript Object Notation format (JSON) in row-major order
http://www.bom.gov.au/fwo/IDV60701/IDV60701.95936.json